createdAt,value
2022-12-23T00:01:51.805Z,5.10
2022-12-23T00:04:18.805Z,5.25
2022-12-23T00:06:45.838Z,5.13
2022-12-23T00:09:12.730Z,5.80
2022-12-23T00:11:59.546Z,4.60
2022-12-23T00:14:45.438Z,4.40
2022-12-23T00:17:28.881Z,5.25
2022-12-23T00:19:58.123Z,4.03
2022-12-23T00:22:44.863Z,4.70
2022-12-23T00:25:12.644Z,6.05
2022-12-23T00:27:39.883Z,5.35
2022-12-23T00:30:09.135Z,4.32
2022-12-23T00:32:35.896Z,5.47
2022-12-23T00:35:02.608Z,4.75
2022-12-23T00:37:31.221Z,5.17
2022-12-23T00:40:16.780Z,6.28
2022-12-23T00:42:55.449Z,5.35
2022-12-23T00:45:22.347Z,5.68
2022-12-23T00:48:07.723Z,4.53
2022-12-23T00:50:39.523Z,5.63
2022-12-23T00:53:06.800Z,4.00
2022-12-23T00:55:33.803Z,4.90
2022-12-23T00:58:00.752Z,3.83
2022-12-23T01:00:45.932Z,5.32
2022-12-23T01:03:33.212Z,5.18
2022-12-23T01:06:01.097Z,3.90
2022-12-23T01:08:29.609Z,4.75
2022-12-23T01:10:56.495Z,4.32
2022-12-23T01:13:23.242Z,3.85
2022-12-23T01:15:50.099Z,5.43
2022-12-23T01:18:17.214Z,3.67
2022-12-23T01:20:43.947Z,5.43
2022-12-23T01:23:11.790Z,5.70
2022-12-23T01:25:38.587Z,5.35
2022-12-23T01:28:05.318Z,4.30
2022-12-23T01:30:33.239Z,4.55
2022-12-23T01:32:59.979Z,3.13
2022-12-23T01:35:28.261Z,7.30
2022-12-23T01:37:55.482Z,3.92
2022-12-23T01:40:22.442Z,4.77
2022-12-23T01:42:49.666Z,3.85
2022-12-23T01:45:30.672Z,6.50
2022-12-23T01:48:10.131Z,4.03
2022-12-23T01:50:44.222Z,5.10
2022-12-23T01:53:29.793Z,5.20
2022-12-23T01:56:12.062Z,6.20
2022-12-23T01:58:44.050Z,5.60
2022-12-23T02:01:30.279Z,4.82
2022-12-23T02:04:01.044Z,4.68
2022-12-23T02:06:51.627Z,6.45
2022-12-23T02:09:22.018Z,3.22
2022-12-23T02:12:10.215Z,4.60
2022-12-23T02:15:10.718Z,4.10
2022-12-23T02:18:14.517Z,4.82
2022-12-23T02:20:55.285Z,5.00
2022-12-23T02:23:58.216Z,4.00
2022-12-23T02:26:53.230Z,4.13
2022-12-23T02:29:31.828Z,5.70
2022-12-23T02:32:02.973Z,5.28
2022-12-23T02:34:54.373Z,5.00
2022-12-23T02:37:58.770Z,5.25
2022-12-23T02:40:43.521Z,7.50
2022-12-23T02:43:24.791Z,6.23
2022-12-23T02:45:58.729Z,4.90
2022-12-23T02:48:31.483Z,5.38
2022-12-23T02:51:00.193Z,4.85
2022-12-23T02:53:34.000Z,3.90
2022-12-23T02:56:03.455Z,4.32
2022-12-23T02:58:36.085Z,3.97
2022-12-23T03:01:05.235Z,6.32
2022-12-23T03:03:34.204Z,6.35
2022-12-23T03:06:05.328Z,4.45
2022-12-23T03:08:38.758Z,4.00
2022-12-23T03:11:05.989Z,4.88
2022-12-23T03:14:13.325Z,3.80
2022-12-23T03:17:06.614Z,4.63
2022-12-23T03:19:34.387Z,3.88
2022-12-23T03:22:28.385Z,3.58
2022-12-23T03:25:17.564Z,3.67
2022-12-23T03:28:03.215Z,3.77
2022-12-23T03:30:31.744Z,3.65
2022-12-23T03:33:39.557Z,2.75
2022-12-23T03:36:18.185Z,4.15
2022-12-23T03:38:45.942Z,3.85
2022-12-23T03:41:25.017Z,3.10
2022-12-23T03:44:00.424Z,4.43
2022-12-23T03:46:46.693Z,3.80
2022-12-23T03:49:24.858Z,3.80
2022-12-23T03:52:17.254Z,4.70
2022-12-23T03:54:54.876Z,3.47
2022-12-23T03:57:28.876Z,2.92
2022-12-23T03:59:56.151Z,3.97
2022-12-23T04:02:44.549Z,4.50
2022-12-23T04:05:11.816Z,4.07
2022-12-23T04:07:54.464Z,2.55
2022-12-23T04:10:22.608Z,3.43
2022-12-23T04:12:50.211Z,4.07
2022-12-23T04:15:24.249Z,3.87
2022-12-23T04:17:52.919Z,3.72
2022-12-23T04:20:19.928Z,3.85
2022-12-23T04:22:46.830Z,2.78
2022-12-23T04:25:15.538Z,4.13
2022-12-23T04:27:42.498Z,4.90
2022-12-23T04:30:11.098Z,4.38
2022-12-23T04:32:38.286Z,3.10
2022-12-23T04:35:06.768Z,4.18
2022-12-23T04:37:33.659Z,3.20
2022-12-23T04:40:00.488Z,3.90
2022-12-23T04:42:28.281Z,3.40
2022-12-23T04:44:57.126Z,2.53
2022-12-23T04:47:24.031Z,2.90
2022-12-23T04:49:51.877Z,3.40
2022-12-23T04:52:19.083Z,3.28
2022-12-23T04:54:46.647Z,3.28
2022-12-23T04:57:13.914Z,3.33
2022-12-23T04:59:40.604Z,2.63
2022-12-23T05:02:08.632Z,4.47
2022-12-23T05:04:35.850Z,3.72
2022-12-23T05:07:02.685Z,3.25
2022-12-23T05:09:32.638Z,2.38
2022-12-23T05:12:00.360Z,2.88
2022-12-23T05:14:28.091Z,2.72
2022-12-23T05:16:54.948Z,3.40
2022-12-23T05:19:21.890Z,3.42
2022-12-23T05:21:49.655Z,3.90
2022-12-23T05:24:16.424Z,2.50
2022-12-23T05:26:47.710Z,2.85
2022-12-23T05:29:15.503Z,1.80
2022-12-23T05:31:42.335Z,3.92
2022-12-23T05:34:09.155Z,2.80
2022-12-23T05:36:36.037Z,3.05
2022-12-23T05:39:03.195Z,3.75
2022-12-23T05:41:31.436Z,3.40
2022-12-23T05:43:58.147Z,2.20
2022-12-23T05:46:26.963Z,3.08
2022-12-23T05:48:55.008Z,4.40
2022-12-23T05:51:21.906Z,3.13
2022-12-23T05:53:48.638Z,4.43
2022-12-23T05:56:15.894Z,2.42
2022-12-23T05:58:42.649Z,2.78
2022-12-23T06:01:09.907Z,2.30
2022-12-23T06:03:37.857Z,5.15
2022-12-23T06:06:05.175Z,4.45
2022-12-23T06:08:32.146Z,4.53
2022-12-23T06:10:59.873Z,2.73
2022-12-23T06:13:26.880Z,3.15
2022-12-23T06:15:53.609Z,3.83
2022-12-23T06:18:20.382Z,5.63
2022-12-23T06:20:47.918Z,4.22
2022-12-23T06:23:15.266Z,5.65
2022-12-23T06:25:42.686Z,4.00
2022-12-23T06:28:09.953Z,6.75
2022-12-23T06:30:37.251Z,4.38
2022-12-23T06:33:04.617Z,4.00
2022-12-23T06:35:32.157Z,3.35
2022-12-23T06:38:02.432Z,3.45
2022-12-23T06:40:30.758Z,3.88
2022-12-23T06:42:58.168Z,3.88
2022-12-23T06:45:25.498Z,3.00
2022-12-23T06:47:53.903Z,5.60
2022-12-23T06:50:21.324Z,3.92
2022-12-23T06:52:58.673Z,6.53
2022-12-23T06:55:36.267Z,4.80
2022-12-23T06:58:04.950Z,3.22
2022-12-23T07:03:45.183Z,4.17
2022-12-23T07:07:12.756Z,8.05
2022-12-23T07:11:26.850Z,5.23
2022-12-23T07:13:33.755Z,4.80
2022-12-23T07:24:27.457Z,6.63
2022-12-23T07:28:16.374Z,5.80
2022-12-23T07:33:54.019Z,3.78
2022-12-23T07:36:23.902Z,5.95
2022-12-23T07:38:57.326Z,4.25
2022-12-23T07:41:25.689Z,4.50
2022-12-23T07:43:55.467Z,4.50
2022-12-23T07:46:25.933Z,3.77
2022-12-23T07:49:19.979Z,4.43
2022-12-23T07:52:01.424Z,4.30
2022-12-23T07:54:33.771Z,3.88
2022-12-23T07:57:01.567Z,3.92
2022-12-23T07:59:29.953Z,5.45
2022-12-23T08:02:01.772Z,7.63
2022-12-23T08:04:32.921Z,7.00
2022-12-23T08:10:54.418Z,7.03
2022-12-23T08:17:11.132Z,6.90
2022-12-23T08:19:43.860Z,9.90
2022-12-23T08:25:25.020Z,11.33
2022-12-23T08:28:07.693Z,11.63
2022-12-23T08:37:38.484Z,7.38
2022-12-23T08:40:07.263Z,5.97
2022-12-23T08:42:35.544Z,6.38
2022-12-23T08:45:03.055Z,7.93
2022-12-23T08:47:35.703Z,5.20
2022-12-23T08:50:03.331Z,5.30
2022-12-23T08:52:30.852Z,7.50
2022-12-23T08:54:58.087Z,6.57
2022-12-23T08:57:26.422Z,4.50
2022-12-23T08:59:55.795Z,6.93
2022-12-23T09:02:43.495Z,5.90
2022-12-23T09:05:14.186Z,4.90
2022-12-23T09:07:41.607Z,5.22
2022-12-23T09:10:10.017Z,5.15
2022-12-23T09:12:43.902Z,5.90
2022-12-23T09:15:14.667Z,4.23
2022-12-23T09:17:42.212Z,6.10
2022-12-23T09:20:10.528Z,4.65
2022-12-23T09:22:38.839Z,3.95
2022-12-23T09:25:09.254Z,4.03
2022-12-23T09:27:38.013Z,3.55
2022-12-23T09:30:07.728Z,4.05
2022-12-23T09:32:36.170Z,4.78
2022-12-23T09:35:04.771Z,5.30
2022-12-23T09:37:33.094Z,4.78
2022-12-23T09:40:05.782Z,4.70
2022-12-23T09:42:33.068Z,3.28
2022-12-23T09:45:40.278Z,5.03
2022-12-23T09:48:39.284Z,3.40
2022-12-23T09:51:07.036Z,2.45
2022-12-23T10:01:24.200Z,3.65
2022-12-23T10:04:49.642Z,3.17
2022-12-23T10:07:51.007Z,3.22
2022-12-23T10:10:43.870Z,2.47
2022-12-23T10:13:19.032Z,3.17
2022-12-23T10:15:51.135Z,4.65
2022-12-23T10:18:42.094Z,3.15
2022-12-23T10:21:37.349Z,1.88
2022-12-23T10:24:16.168Z,2.40
2022-12-23T10:28:03.643Z,4.03
2022-12-23T10:33:29.340Z,2.30
2022-12-23T10:36:09.807Z,2.47
2022-12-23T10:38:46.333Z,2.30
2022-12-23T10:41:40.111Z,2.25
2022-12-23T10:44:45.692Z,2.28
2022-12-23T10:47:41.538Z,1.38
2022-12-23T10:50:37.631Z,1.20
2022-12-23T10:53:07.500Z,2.30
2022-12-23T10:55:41.049Z,1.92
2022-12-23T10:58:15.513Z,1.80
2022-12-23T11:00:46.228Z,2.90
2022-12-23T11:03:19.445Z,2.00
2022-12-23T11:05:52.145Z,2.97
2022-12-23T11:08:21.811Z,1.98
2022-12-23T11:10:52.708Z,2.17
2022-12-23T11:13:26.310Z,2.92
2022-12-23T11:16:16.068Z,1.40
2022-12-23T11:18:55.733Z,2.40
2022-12-23T11:21:25.800Z,1.08
2022-12-23T11:24:17.859Z,1.30
2022-12-23T11:26:49.665Z,1.27
2022-12-23T11:29:31.572Z,2.85
2022-12-23T11:31:59.562Z,2.88
2022-12-23T11:34:27.759Z,2.03
2022-12-23T11:37:00.244Z,1.60
2022-12-23T11:39:37.025Z,1.33
2022-12-23T11:42:19.353Z,2.30
2022-12-23T11:44:49.740Z,2.15
2022-12-23T11:47:35.587Z,2.63
2022-12-23T11:50:22.683Z,1.52
2022-12-23T11:52:54.155Z,2.45
2022-12-23T11:55:34.973Z,1.65
2022-12-23T11:58:03.439Z,2.72
2022-12-23T12:00:34.929Z,1.73
2022-12-23T12:03:04.228Z,3.00
2022-12-23T12:05:40.805Z,2.43
2022-12-23T12:08:12.478Z,2.20
2022-12-23T12:10:42.461Z,1.50
2022-12-23T12:13:25.734Z,2.30
2022-12-23T12:16:16.465Z,3.22
2022-12-23T12:18:50.476Z,2.17
2022-12-23T12:21:29.308Z,2.77
2022-12-23T12:24:17.869Z,3.50
2022-12-23T12:27:02.572Z,2.08
2022-12-23T12:29:32.877Z,1.92
2022-12-23T12:32:02.249Z,2.85
2022-12-23T12:38:00.999Z,2.28
2022-12-23T12:40:49.592Z,2.70
2022-12-23T12:43:31.438Z,4.45
2022-12-23T12:45:58.833Z,2.65
2022-12-23T12:48:39.201Z,3.33
2022-12-23T12:51:07.544Z,3.03
2022-12-23T12:53:36.332Z,2.45
2022-12-23T12:56:07.989Z,3.15
2022-12-23T12:58:35.336Z,2.50
2022-12-23T13:01:25.163Z,2.20
2022-12-23T13:03:55.503Z,4.32
2022-12-23T13:06:49.395Z,2.95
2022-12-23T13:09:38.081Z,2.40
2022-12-23T13:12:14.647Z,3.17
2022-12-23T13:14:51.130Z,2.47
2022-12-23T13:17:21.931Z,3.77
2022-12-23T13:20:16.068Z,2.47
2022-12-23T13:22:47.748Z,4.53
2022-12-23T13:25:22.512Z,4.60
2022-12-23T13:28:24.418Z,4.13
2022-12-23T13:31:14.120Z,4.00
2022-12-23T13:33:57.801Z,6.45
2022-12-23T13:36:44.057Z,3.13
2022-12-23T13:39:36.314Z,5.43
2022-12-23T13:42:08.452Z,4.53
2022-12-23T13:44:36.043Z,3.93
2022-12-23T13:47:22.270Z,2.65
2022-12-23T13:49:54.619Z,3.20
2022-12-23T13:52:41.681Z,3.78
2022-12-23T13:55:11.937Z,4.65
2022-12-23T13:57:57.613Z,6.90
2022-12-23T14:00:32.543Z,6.57
2022-12-23T14:03:00.952Z,5.00
2022-12-23T14:05:34.541Z,5.03
2022-12-23T14:08:20.314Z,4.05
2022-12-23T14:11:09.210Z,6.65
2022-12-23T14:13:47.738Z,4.63
2022-12-23T14:16:19.147Z,5.13
2022-12-23T14:18:49.505Z,5.53
2022-12-23T14:21:30.676Z,6.40
2022-12-23T14:24:03.835Z,6.28
2022-12-23T14:26:37.877Z,7.35
2022-12-23T14:29:26.461Z,6.00
2022-12-23T14:31:58.042Z,5.45
2022-12-23T14:34:30.735Z,7.50
2022-12-23T14:37:24.231Z,5.00
2022-12-23T14:39:54.889Z,6.97
2022-12-23T14:42:43.516Z,7.18
2022-12-23T14:45:30.691Z,7.63
2022-12-23T14:47:58.066Z,6.55
2022-12-23T14:50:39.340Z,7.68
2022-12-23T14:53:26.791Z,8.35
2022-12-23T14:56:10.835Z,7.47
2022-12-23T14:59:21.204Z,7.63
2022-12-23T15:01:59.545Z,8.13
2022-12-23T15:04:46.146Z,8.82
2022-12-23T15:07:34.058Z,9.77
2022-12-23T15:10:07.304Z,7.75
2022-12-23T15:12:38.683Z,8.33
2022-12-23T15:15:36.924Z,8.67
2022-12-23T15:18:07.961Z,7.55
2022-12-23T15:20:38.387Z,8.05
2022-12-23T15:23:20.297Z,9.10
2022-12-23T15:25:48.955Z,9.18
2022-12-23T15:28:19.190Z,9.33
2022-12-23T15:30:53.312Z,11.18
2022-12-23T15:36:13.893Z,10.27
2022-12-23T15:38:41.684Z,9.57
2022-12-23T15:41:19.808Z,11.00
2022-12-23T15:43:53.984Z,12.23
2022-12-23T15:46:29.271Z,9.40
2022-12-23T15:48:58.946Z,11.05
2022-12-23T15:52:05.135Z,9.90
2022-12-23T15:54:31.178Z,11.38
2022-12-23T15:57:08.304Z,11.40
2022-12-23T15:59:49.477Z,13.68
2022-12-23T16:03:00.347Z,9.55
2022-12-23T16:05:34.398Z,9.63
2022-12-23T16:08:12.210Z,9.73
2022-12-23T16:10:42.956Z,12.15
2022-12-23T16:13:18.527Z,9.68
2022-12-23T16:15:59.220Z,11.90
2022-12-23T16:18:46.991Z,11.83
2022-12-23T16:38:35.374Z,11.70
2022-12-23T16:41:03.917Z,11.02
2022-12-23T16:43:31.616Z,14.70
2022-12-23T16:46:05.290Z,9.55
2022-12-23T16:48:37.393Z,10.63
2022-12-23T16:51:14.302Z,12.20
2022-12-23T16:53:42.799Z,19.67
2022-12-23T16:56:12.965Z,13.95
2022-12-23T16:58:40.333Z,13.17
2022-12-23T17:01:07.884Z,13.73
2022-12-23T17:03:38.375Z,13.05
2022-12-23T17:06:13.636Z,14.73
2022-12-23T17:08:41.584Z,13.70
2022-12-23T17:11:19.382Z,13.30
2022-12-23T17:13:49.401Z,17.07
2022-12-23T17:16:24.398Z,11.60
2022-12-23T17:18:53.122Z,13.07
2022-12-23T17:21:25.160Z,15.60
2022-12-23T17:23:56.780Z,15.47
2022-12-23T17:26:24.061Z,16.20
2022-12-23T17:28:52.411Z,12.40
2022-12-23T17:31:26.634Z,15.50
2022-12-23T17:33:55.615Z,20.27
2022-12-23T17:36:23.962Z,13.65
2022-12-23T17:38:51.416Z,13.55
2022-12-23T17:41:30.908Z,16.08
2022-12-23T17:43:58.838Z,13.98
2022-12-23T17:46:26.881Z,14.53
2022-12-23T17:48:57.210Z,13.13
2022-12-23T17:51:24.666Z,16.13
2022-12-23T17:53:57.637Z,12.95
2022-12-23T17:56:28.987Z,15.57
2022-12-23T17:58:56.503Z,15.20
2022-12-23T18:01:23.766Z,13.63
2022-12-23T18:03:51.063Z,15.77
2022-12-23T18:06:20.289Z,14.73
2022-12-23T18:08:47.900Z,13.32
2022-12-23T18:11:19.384Z,13.88
2022-12-23T18:13:48.421Z,13.85
2022-12-23T18:16:15.907Z,16.13
2022-12-23T18:18:46.841Z,14.00
2022-12-23T18:21:21.019Z,14.90
2022-12-23T18:23:48.431Z,15.20
2022-12-23T18:26:17.792Z,15.30
2022-12-23T18:28:45.445Z,12.07
2022-12-23T18:31:18.078Z,16.17
2022-12-23T18:33:47.934Z,13.75
2022-12-23T18:36:27.056Z,14.75
2022-12-23T18:38:58.091Z,12.40
2022-12-23T18:44:52.557Z,122.75
2022-12-23T18:47:23.473Z,79.68
2022-12-23T18:49:54.077Z,18.65
2022-12-23T18:52:22.530Z,41.23
2022-12-23T18:54:49.780Z,15.17
2022-12-23T18:57:18.102Z,32.03
2022-12-23T18:59:45.464Z,22.90
2022-12-23T19:02:15.199Z,16.40
2022-12-23T19:05:15.765Z,16.27
2022-12-23T19:07:52.880Z,17.40
2022-12-23T19:10:26.836Z,14.30
2022-12-23T19:12:55.486Z,15.32
2022-12-23T19:15:23.952Z,15.50
2022-12-23T19:17:52.452Z,13.35
2022-12-23T19:20:21.327Z,11.82
2022-12-23T19:22:50.004Z,13.83
2022-12-23T19:25:19.851Z,14.82
2022-12-23T19:27:47.176Z,12.57
2022-12-23T19:30:17.175Z,14.35
2022-12-23T19:32:50.071Z,13.10
2022-12-23T19:35:17.421Z,13.70
2022-12-23T19:37:45.965Z,13.30
2022-12-23T19:40:13.356Z,14.90
2022-12-23T19:42:41.432Z,13.73
2022-12-23T19:45:09.872Z,13.23
2022-12-23T19:47:38.603Z,13.95
2022-12-23T19:50:06.944Z,13.38
2022-12-23T19:52:34.254Z,12.18
2022-12-23T19:55:01.485Z,15.73
2022-12-23T19:57:28.930Z,15.13
2022-12-23T19:59:56.217Z,15.93
2022-12-23T20:02:25.669Z,12.65
2022-12-23T20:04:52.921Z,13.27
2022-12-23T20:07:20.262Z,15.47
2022-12-23T20:09:47.574Z,11.40
2022-12-23T20:12:14.896Z,15.55
2022-12-23T20:14:42.181Z,15.45
2022-12-23T20:17:09.538Z,12.82
2022-12-23T20:19:43.869Z,14.18
2022-12-23T20:22:14.229Z,13.10
2022-12-23T20:24:41.490Z,16.42
2022-12-23T20:27:12.116Z,13.65
2022-12-23T20:29:41.413Z,13.25
2022-12-23T20:32:08.752Z,14.25
2022-12-23T20:34:39.774Z,11.73
2022-12-23T20:37:09.760Z,11.27
2022-12-23T20:39:38.272Z,15.30
2022-12-23T20:42:05.722Z,13.77
2022-12-23T20:44:34.926Z,12.75
2022-12-23T20:47:04.422Z,12.18
2022-12-23T20:49:32.059Z,13.80
2022-12-23T20:51:59.391Z,13.88
2022-12-23T20:54:32.867Z,13.90
2022-12-23T20:57:03.881Z,14.57
2022-12-23T20:59:31.396Z,16.48
2022-12-23T21:01:59.332Z,14.43
2022-12-23T21:04:26.802Z,12.10
2022-12-23T21:06:55.310Z,14.80
2022-12-23T21:09:22.658Z,13.10
2022-12-23T21:11:50.117Z,16.57
2022-12-23T21:14:17.461Z,13.57
2022-12-23T21:16:45.890Z,15.20
2022-12-23T21:19:21.677Z,14.37
2022-12-23T21:21:51.415Z,12.23
2022-12-23T21:24:21.461Z,14.35
2022-12-23T21:26:56.490Z,14.20
2022-12-23T21:29:25.115Z,19.02
2022-12-23T21:31:53.650Z,14.10
2022-12-23T21:34:22.279Z,14.52
2022-12-23T21:36:52.721Z,16.55
2022-12-23T21:39:23.503Z,14.32
2022-12-23T21:41:51.713Z,12.82
2022-12-23T21:44:19.250Z,17.95
2022-12-23T21:46:46.624Z,14.32
2022-12-23T21:49:14.100Z,14.88
2022-12-23T21:51:42.453Z,16.13
2022-12-23T21:54:11.335Z,17.60
2022-12-23T21:56:38.958Z,10.87
2022-12-23T21:59:07.519Z,13.15
2022-12-23T22:01:36.026Z,16.20
2022-12-23T22:04:03.490Z,16.95
2022-12-23T22:06:33.124Z,15.95
2022-12-23T22:09:00.906Z,13.63
2022-12-23T22:11:30.665Z,14.73
2022-12-23T22:13:58.911Z,14.07
2022-12-23T22:16:27.578Z,14.65
2022-12-23T22:18:55.191Z,16.13
2022-12-23T22:21:23.909Z,17.77
2022-12-23T22:23:51.917Z,15.03
2022-12-23T22:26:25.268Z,14.05
2022-12-23T22:28:55.522Z,12.57
2022-12-23T22:31:41.777Z,14.15
2022-12-23T22:34:14.605Z,18.45
2022-12-23T22:36:42.021Z,14.07
2022-12-23T22:39:19.514Z,14.90
2022-12-23T22:41:47.792Z,15.98
2022-12-23T22:44:15.291Z,16.08
2022-12-23T22:46:43.948Z,15.02
2022-12-23T22:49:14.703Z,13.27
2022-12-23T22:51:42.428Z,12.45
2022-12-23T22:54:10.979Z,14.77
2022-12-23T22:56:39.337Z,15.50
2022-12-23T22:59:06.850Z,15.43
2022-12-23T23:01:35.613Z,12.63
2022-12-23T23:04:03.849Z,15.23
2022-12-23T23:06:34.526Z,15.70
2022-12-23T23:09:02.197Z,15.73
2022-12-23T23:11:30.172Z,16.42
2022-12-23T23:13:57.634Z,14.63
2022-12-23T23:16:26.245Z,16.30
2022-12-23T23:18:53.791Z,13.82
2022-12-23T23:21:22.133Z,13.90
2022-12-23T23:23:49.951Z,13.18
2022-12-23T23:26:18.038Z,14.35
2022-12-23T23:28:46.823Z,14.00
2022-12-23T23:31:41.416Z,14.85
2022-12-23T23:34:01.481Z,15.10
2022-12-23T23:36:28.870Z,12.82
2022-12-23T23:38:58.027Z,13.00
2022-12-23T23:41:25.429Z,13.68
2022-12-23T23:43:53.754Z,11.40
2022-12-23T23:46:21.229Z,14.37
2022-12-23T23:48:50.632Z,14.48
2022-12-23T23:51:19.261Z,13.17
2022-12-23T23:53:46.548Z,12.32
2022-12-23T23:56:13.875Z,12.47
2022-12-23T23:58:42.294Z,14.30
